createdAt,value
2018-11-25T00:04:16.523Z,7.80
2018-11-25T00:09:19.898Z,7.80
2018-11-25T00:14:29.022Z,7.80
2018-11-25T00:19:32.357Z,7.50
2018-11-25T00:24:35.641Z,7.60
2018-11-25T00:29:39.189Z,7.50
2018-11-25T00:34:42.495Z,7.60
2018-11-25T00:39:45.845Z,7.70
2018-11-25T00:45:07.818Z,7.50
2018-11-25T00:50:37.416Z,7.50
2018-11-25T00:55:52.183Z,7.50
2018-11-25T01:01:14.600Z,7.70
2018-11-25T01:06:22.407Z,7.70
2018-11-25T01:11:32.118Z,7.80
2018-11-25T01:22:16.134Z,7.80
2018-11-25T01:27:24.863Z,7.80
2018-11-25T01:48:48.219Z,7.90
2018-11-25T01:54:12.217Z,7.90
2018-11-25T01:59:29.397Z,7.90
2018-11-25T02:04:32.978Z,7.90
2018-11-25T02:09:36.633Z,7.80
2018-11-25T02:14:40.406Z,7.80
2018-11-25T02:19:44.234Z,7.80
2018-11-25T02:24:47.909Z,7.80
2018-11-25T02:29:51.616Z,7.70
2018-11-25T02:34:55.501Z,7.70
2018-11-25T02:39:59.170Z,7.80
2018-11-25T02:45:03.547Z,7.80
2018-11-25T02:50:15.207Z,7.80
2018-11-25T02:55:22.146Z,7.70
2018-11-25T03:00:28.609Z,7.70
2018-11-25T03:05:32.144Z,7.60
2018-11-25T03:10:35.891Z,7.60
2018-11-25T03:15:39.377Z,7.60
2018-11-25T03:20:43.162Z,7.60
2018-11-25T03:25:46.832Z,7.50
2018-11-25T03:30:50.432Z,7.50
2018-11-25T03:35:54.091Z,7.50
2018-11-25T03:40:57.494Z,7.50
2018-11-25T03:46:01.222Z,7.60
2018-11-25T03:51:07.472Z,7.60
2018-11-25T03:56:11.088Z,7.60
2018-11-25T04:01:15.867Z,7.60
2018-11-25T04:06:19.559Z,7.50
2018-11-25T04:11:23.445Z,7.50
2018-11-25T04:16:33.544Z,7.60
2018-11-25T04:21:37.283Z,7.60
2018-11-25T04:26:40.784Z,7.70
2018-11-25T04:31:44.286Z,7.70
2018-11-25T04:36:50.072Z,7.70
2018-11-25T04:41:54.887Z,7.50
2018-11-25T04:46:58.323Z,7.60
2018-11-25T04:52:01.835Z,7.60
2018-11-25T04:57:05.499Z,7.60
2018-11-25T05:02:09.817Z,7.50
2018-11-25T05:07:13.512Z,7.60
2018-11-25T05:12:17.073Z,7.60
2018-11-25T05:17:21.190Z,7.60
2018-11-25T05:22:24.773Z,7.60
2018-11-25T05:27:29.039Z,7.70
2018-11-25T05:32:38.337Z,7.70
2018-11-25T05:37:42.063Z,7.60
2018-11-25T05:42:45.990Z,7.60
2018-11-25T05:47:49.861Z,7.60
2018-11-25T05:52:53.325Z,7.60
2018-11-25T05:57:56.926Z,7.50
2018-11-25T06:03:00.810Z,7.50
2018-11-25T06:08:04.446Z,7.40
2018-11-25T06:13:07.994Z,7.40
2018-11-25T06:18:11.471Z,7.30
2018-11-25T06:23:15.144Z,7.30
2018-11-25T06:28:18.489Z,7.40
2018-11-25T06:33:22.241Z,7.40
2018-11-25T06:38:25.845Z,7.30
2018-11-25T06:43:29.620Z,7.30
2018-11-25T06:48:34.255Z,7.30
2018-11-25T06:53:37.533Z,7.20
2018-11-25T06:58:40.836Z,7.20
2018-11-25T07:03:44.150Z,7.10
2018-11-25T07:08:47.379Z,7.00
2018-11-25T07:13:50.672Z,7.10
2018-11-25T07:18:53.977Z,7.10
2018-11-25T07:23:57.430Z,7.10
2018-11-25T07:29:00.653Z,7.00
2018-11-25T07:34:04.059Z,7.10
2018-11-25T07:39:07.866Z,7.10
2018-11-25T07:44:11.129Z,7.30
2018-11-25T07:49:14.463Z,7.30
2018-11-25T07:54:17.815Z,7.30
2018-11-25T07:59:21.065Z,7.40
2018-11-25T08:04:24.446Z,7.40
2018-11-25T08:09:27.720Z,7.40
2018-11-25T08:14:31.024Z,7.50
2018-11-25T08:19:44.680Z,7.40
2018-11-25T08:29:56.258Z,7.60
2018-11-25T08:35:14.005Z,7.80
2018-11-25T08:40:22.385Z,7.60
2018-11-25T08:45:26.005Z,8.00
2018-11-25T08:50:29.998Z,8.20
2018-11-25T08:55:33.340Z,8.50
2018-11-25T09:00:36.606Z,8.70
2018-11-25T09:05:40.841Z,9.00
2018-11-25T09:10:44.376Z,9.70
2018-11-25T09:15:50.247Z,10.20
2018-11-25T09:20:54.409Z,10.50
2018-11-25T09:25:58.351Z,10.90
2018-11-25T09:31:02.606Z,11.10
2018-11-25T09:36:09.185Z,10.90
2018-11-25T09:41:12.739Z,10.60
2018-11-25T09:46:16.902Z,10.40
2018-11-25T09:51:21.062Z,10.50
2018-11-25T09:56:24.655Z,10.60
2018-11-25T10:01:29.085Z,10.90
2018-11-25T10:06:32.467Z,11.00
2018-11-25T10:11:37.573Z,10.80
2018-11-25T10:16:41.546Z,10.50
2018-11-25T10:21:44.906Z,10.50
2018-11-25T10:26:51.931Z,10.50
2018-11-25T10:31:57.386Z,10.30
2018-11-25T10:37:00.842Z,10.40
2018-11-25T10:42:04.828Z,10.40
2018-11-25T10:47:13.331Z,10.40
2018-11-25T10:52:17.282Z,10.60
2018-11-25T10:57:23.507Z,10.80
2018-11-25T11:02:32.126Z,10.80
2018-11-25T11:07:41.523Z,10.60
2018-11-25T11:12:45.450Z,10.50
2018-11-25T11:17:49.606Z,10.70
2018-11-25T11:22:53.134Z,10.90
2018-11-25T11:27:56.526Z,10.70
2018-11-25T11:38:18.876Z,10.80
2018-11-25T11:43:22.497Z,10.70
2018-11-25T11:48:27.688Z,10.70
2018-11-25T11:53:33.291Z,10.80
2018-11-25T11:58:36.802Z,10.50
2018-11-25T12:03:40.300Z,10.60
2018-11-25T12:08:43.668Z,10.60
2018-11-25T12:13:47.176Z,10.60
2018-11-25T12:18:50.807Z,10.60
2018-11-25T12:23:59.173Z,10.30
2018-11-25T12:29:02.836Z,10.20
2018-11-25T12:34:10.380Z,10.40
2018-11-25T12:39:21.894Z,10.40
2018-11-25T12:44:32.301Z,10.60
2018-11-25T12:49:35.926Z,10.60
2018-11-25T12:54:39.772Z,10.50
2018-11-25T12:59:43.590Z,10.60
2018-11-25T13:10:22.303Z,10.60
2018-11-25T13:15:26.080Z,10.70
2018-11-25T13:20:30.055Z,10.70
2018-11-25T13:25:33.507Z,10.80
2018-11-25T13:30:36.925Z,10.90
2018-11-25T13:35:40.563Z,10.90
2018-11-25T13:40:45.373Z,10.60
2018-11-25T13:45:48.953Z,10.40
2018-11-25T13:50:59.558Z,10.30
2018-11-25T13:56:11.158Z,10.30
2018-11-25T14:01:42.178Z,10.40
2018-11-25T14:45:32.781Z,10.30
2018-11-25T14:51:03.941Z,10.10
2018-11-25T15:02:40.712Z,10.00
2018-11-25T16:32:22.651Z,8.20
2018-11-25T16:37:27.594Z,8.00
2018-11-25T16:42:31.043Z,7.90
2018-11-25T16:47:42.735Z,7.90
2018-11-25T16:52:46.637Z,7.80
2018-11-25T16:57:54.972Z,7.80
2018-11-25T17:02:59.728Z,7.70
2018-11-25T17:08:09.800Z,7.60
2018-11-25T17:13:13.310Z,7.60
2018-11-25T17:18:17.270Z,7.60
2018-11-25T17:23:22.775Z,7.60
2018-11-25T17:28:27.559Z,7.50
2018-11-25T17:33:31.032Z,7.40
2018-11-25T17:38:34.392Z,7.40
2018-11-25T17:43:37.733Z,7.40
2018-11-25T17:48:41.119Z,7.30
2018-11-25T17:53:44.429Z,7.20
2018-11-25T17:58:47.731Z,7.30
2018-11-25T18:03:51.320Z,7.20
2018-11-25T18:08:55.267Z,7.20
2018-11-25T18:14:06.937Z,7.30
2018-11-25T18:19:22.807Z,7.10
2018-11-25T18:30:06.009Z,7.20
2018-11-25T18:35:09.805Z,7.20
2018-11-25T18:40:21.674Z,7.20
2018-11-25T18:45:26.872Z,7.20
2018-11-25T18:50:33.167Z,7.10
2018-11-25T18:55:35.380Z,7.10
2018-11-25T19:00:40.622Z,7.00
2018-11-25T19:05:44.504Z,6.90
2018-11-25T19:10:47.949Z,7.00
2018-11-25T19:15:51.353Z,6.90
2018-11-25T19:20:54.749Z,6.90
2018-11-25T19:25:58.010Z,6.90
2018-11-25T19:31:03.154Z,7.00
2018-11-25T19:36:07.221Z,7.00
2018-11-25T19:41:11.872Z,6.80
2018-11-25T19:46:17.445Z,6.80
2018-11-25T19:51:21.571Z,6.80
2018-11-25T19:56:24.846Z,6.70
2018-11-25T20:01:34.440Z,6.70
2018-11-25T20:06:37.828Z,6.70
2018-11-25T20:11:41.686Z,6.70
2018-11-25T20:16:50.481Z,6.70
2018-11-25T20:21:59.866Z,6.70
2018-11-25T20:27:08.864Z,6.70
2018-11-25T20:32:17.463Z,6.60
2018-11-25T20:37:26.972Z,6.60
2018-11-25T20:42:28.805Z,6.50
2018-11-25T20:47:32.165Z,6.30
2018-11-25T20:52:43.849Z,6.30
2018-11-25T20:57:47.864Z,6.20
2018-11-25T21:02:51.227Z,6.20
2018-11-25T21:07:57.272Z,6.00
2018-11-25T21:13:01.619Z,5.90
2018-11-25T21:18:05.106Z,5.80
2018-11-25T21:23:10.321Z,5.80
2018-11-25T21:28:14.644Z,5.80
2018-11-25T21:33:18.923Z,5.80
2018-11-25T21:38:22.609Z,5.90
2018-11-25T21:43:27.799Z,6.00
2018-11-25T21:48:32.201Z,6.00
2018-11-25T21:53:37.825Z,6.00
2018-11-25T21:58:41.409Z,6.20
2018-11-25T22:03:45.820Z,6.20
2018-11-25T22:08:50.473Z,6.30
2018-11-25T22:13:54.471Z,6.40
2018-11-25T22:18:57.797Z,6.40
2018-11-25T22:24:01.229Z,6.40
2018-11-25T22:29:07.916Z,6.40
2018-11-25T22:34:12.134Z,6.50
2018-11-25T22:39:16.474Z,6.50
2018-11-25T22:44:22.206Z,6.60
2018-11-25T22:49:25.480Z,6.50
2018-11-25T22:54:31.970Z,6.50
2018-11-25T22:59:38.291Z,6.60
2018-11-25T23:04:53.096Z,6.70
2018-11-25T23:10:00.838Z,6.60
2018-11-25T23:15:04.842Z,6.60
2018-11-25T23:20:08.133Z,6.50
2018-11-25T23:25:12.214Z,6.60
2018-11-25T23:30:17.079Z,6.80
2018-11-25T23:35:26.216Z,6.90
2018-11-25T23:40:29.487Z,6.90
2018-11-25T23:45:34.448Z,6.70
2018-11-25T23:50:37.764Z,6.80
2018-11-25T23:55:41.094Z,6.80
